sensor_id;sensor_type;location;lat;lon;timestamp;pressure;altitude;pressure_sealevel;temperature;humidity
50368;BME280;36281;34.132;-118.018;2023-03-03T00:01:33;100290.78;;;18.19;34.51
50368;BME280;36281;34.132;-118.018;2023-03-03T00:04:02;100284.25;;;18.09;34.70
50368;BME280;36281;34.132;-118.018;2023-03-03T00:06:31;100292.81;;;18.06;34.91
50368;BME280;36281;34.132;-118.018;2023-03-03T00:09:02;100291.38;;;17.99;35.32
50368;BME280;36281;34.132;-118.018;2023-03-03T00:11:31;100292.09;;;17.94;35.38
50368;BME280;36281;34.132;-118.018;2023-03-03T00:14:00;100282.13;;;17.90;35.38
50368;BME280;36281;34.132;-118.018;2023-03-03T00:16:31;100286.16;;;17.87;35.72
50368;BME280;36281;34.132;-118.018;2023-03-03T00:19:06;100277.22;;;17.81;35.39
50368;BME280;36281;34.132;-118.018;2023-03-03T00:21:42;100277.16;;;17.76;35.26
50368;BME280;36281;34.132;-118.018;2023-03-03T00:24:20;100270.34;;;17.69;35.33
50368;BME280;36281;34.132;-118.018;2023-03-03T00:26:51;100277.00;;;17.66;35.43
50368;BME280;36281;34.132;-118.018;2023-03-03T00:29:28;100277.97;;;17.60;35.92
50368;BME280;36281;34.132;-118.018;2023-03-03T00:32:16;100277.91;;;17.55;35.50
50368;BME280;36281;34.132;-118.018;2023-03-03T00:34:47;100279.66;;;17.44;35.43
50368;BME280;36281;34.132;-118.018;2023-03-03T00:37:25;100277.69;;;17.40;35.50
50368;BME280;36281;34.132;-118.018;2023-03-03T00:40:10;100281.38;;;17.34;35.62
50368;BME280;36281;34.132;-118.018;2023-03-03T00:42:42;100286.09;;;17.26;36.21
50368;BME280;36281;34.132;-118.018;2023-03-03T00:45:44;100287.22;;;17.14;36.58
50368;BME280;36281;34.132;-118.018;2023-03-03T00:48:41;100298.91;;;17.08;36.95
50368;BME280;36281;34.132;-118.018;2023-03-03T00:51:24;100294.56;;;17.01;37.29
50368;BME280;36281;34.132;-118.018;2023-03-03T00:53:54;100293.59;;;16.91;37.67
50368;BME280;36281;34.132;-118.018;2023-03-03T00:56:25;100299.31;;;16.83;38.92
50368;BME280;36281;34.132;-118.018;2023-03-03T00:58:55;100298.91;;;16.74;39.45
50368;BME280;36281;34.132;-118.018;2023-03-03T01:01:24;100300.91;;;16.67;39.35
50368;BME280;36281;34.132;-118.018;2023-03-03T01:03:53;100301.84;;;16.61;39.41
50368;BME280;36281;34.132;-118.018;2023-03-03T01:06:22;100304.13;;;16.52;39.90
50368;BME280;36281;34.132;-118.018;2023-03-03T01:08:52;100307.50;;;16.47;40.11
50368;BME280;36281;34.132;-118.018;2023-03-03T01:11:25;100309.03;;;16.43;40.52
50368;BME280;36281;34.132;-118.018;2023-03-03T01:13:56;100307.31;;;16.37;40.68
50368;BME280;36281;34.132;-118.018;2023-03-03T01:16:25;100304.56;;;16.32;40.79
50368;BME280;36281;34.132;-118.018;2023-03-03T01:18:54;100304.09;;;16.23;41.18
50368;BME280;36281;34.132;-118.018;2023-03-03T01:21:23;100314.94;;;16.17;41.62
50368;BME280;36281;34.132;-118.018;2023-03-03T01:23:52;100299.63;;;16.12;42.12
50368;BME280;36281;34.132;-118.018;2023-03-03T01:26:21;100301.03;;;16.03;42.00
50368;BME280;36281;34.132;-118.018;2023-03-03T01:28:52;100300.84;;;15.93;42.58
50368;BME280;36281;34.132;-118.018;2023-03-03T01:31:21;100309.44;;;15.83;42.82
50368;BME280;36281;34.132;-118.018;2023-03-03T01:33:50;100317.25;;;15.73;43.38
50368;BME280;36281;34.132;-118.018;2023-03-03T01:36:23;100321.31;;;15.64;43.78
50368;BME280;36281;34.132;-118.018;2023-03-03T01:38:52;100316.88;;;15.58;43.92
50368;BME280;36281;34.132;-118.018;2023-03-03T01:41:22;100335.66;;;15.51;44.42
50368;BME280;36281;34.132;-118.018;2023-03-03T01:43:52;100341.13;;;15.44;44.58
50368;BME280;36281;34.132;-118.018;2023-03-03T01:46:41;100331.41;;;15.38;45.05
50368;BME280;36281;34.132;-118.018;2023-03-03T01:49:14;100329.88;;;15.31;45.38
50368;BME280;36281;34.132;-118.018;2023-03-03T01:51:51;100337.75;;;15.25;45.82
50368;BME280;36281;34.132;-118.018;2023-03-03T01:54:25;100336.81;;;15.20;45.80
50368;BME280;36281;34.132;-118.018;2023-03-03T01:56:58;100327.06;;;15.14;45.92
50368;BME280;36281;34.132;-118.018;2023-03-03T01:59:32;100337.06;;;15.07;46.01
50368;BME280;36281;34.132;-118.018;2023-03-03T02:02:03;100345.94;;;15.00;46.35
50368;BME280;36281;34.132;-118.018;2023-03-03T02:04:34;100346.63;;;14.96;47.34
50368;BME280;36281;34.132;-118.018;2023-03-03T02:07:06;100346.97;;;14.88;47.19
50368;BME280;36281;34.132;-118.018;2023-03-03T02:09:45;100348.91;;;14.81;47.14
50368;BME280;36281;34.132;-118.018;2023-03-03T02:12:18;100342.06;;;14.73;47.12
50368;BME280;36281;34.132;-118.018;2023-03-03T02:14:50;100353.41;;;14.68;47.42
50368;BME280;36281;34.132;-118.018;2023-03-03T02:17:19;100357.00;;;14.62;47.72
50368;BME280;36281;34.132;-118.018;2023-03-03T02:19:53;100355.19;;;14.56;47.90
50368;BME280;36281;34.132;-118.018;2023-03-03T02:22:33;100359.38;;;14.52;48.58
50368;BME280;36281;34.132;-118.018;2023-03-03T02:25:09;100361.03;;;14.46;49.30
50368;BME280;36281;34.132;-118.018;2023-03-03T02:27:42;100360.31;;;14.39;50.03
50368;BME280;36281;34.132;-118.018;2023-03-03T02:30:15;100363.28;;;14.31;50.51
50368;BME280;36281;34.132;-118.018;2023-03-03T02:32:44;100361.53;;;14.25;50.76
50368;BME280;36281;34.132;-118.018;2023-03-03T02:35:31;100362.66;;;14.17;51.08
50368;BME280;36281;34.132;-118.018;2023-03-03T02:38:08;100354.94;;;14.09;51.25
50368;BME280;36281;34.132;-118.018;2023-03-03T02:40:43;100362.19;;;14.02;51.93
50368;BME280;36281;34.132;-118.018;2023-03-03T02:43:19;100358.22;;;13.93;52.19
50368;BME280;36281;34.132;-118.018;2023-03-03T02:45:51;100365.44;;;13.86;52.84
50368;BME280;36281;34.132;-118.018;2023-03-03T02:48:20;100372.06;;;13.77;53.51
50368;BME280;36281;34.132;-118.018;2023-03-03T02:50:49;100363.34;;;13.69;53.70
50368;BME280;36281;34.132;-118.018;2023-03-03T02:53:18;100371.84;;;13.60;54.15
50368;BME280;36281;34.132;-118.018;2023-03-03T02:55:47;100373.16;;;13.51;54.44
50368;BME280;36281;34.132;-118.018;2023-03-03T02:58:18;100369.94;;;13.42;54.99
50368;BME280;36281;34.132;-118.018;2023-03-03T03:00:47;100379.03;;;13.34;55.08
50368;BME280;36281;34.132;-118.018;2023-03-03T03:03:16;100388.88;;;13.27;55.36
50368;BME280;36281;34.132;-118.018;2023-03-03T03:05:45;100394.66;;;13.17;55.48
50368;BME280;36281;34.132;-118.018;2023-03-03T03:08:14;100394.94;;;13.09;55.66
50368;BME280;36281;34.132;-118.018;2023-03-03T03:10:43;100392.31;;;13.03;55.84
50368;BME280;36281;34.132;-118.018;2023-03-03T03:13:12;100403.81;;;12.97;56.32
50368;BME280;36281;34.132;-118.018;2023-03-03T03:15:44;100411.00;;;12.89;56.69
50368;BME280;36281;34.132;-118.018;2023-03-03T03:18:14;100406.56;;;12.83;56.34
50368;BME280;36281;34.132;-118.018;2023-03-03T03:20:44;100409.66;;;12.74;56.47
50368;BME280;36281;34.132;-118.018;2023-03-03T03:23:15;100410.50;;;12.67;57.17
50368;BME280;36281;34.132;-118.018;2023-03-03T03:25:44;100407.88;;;12.61;57.24
50368;BME280;36281;34.132;-118.018;2023-03-03T03:28:15;100415.88;;;12.54;57.78
50368;BME280;36281;34.132;-118.018;2023-03-03T03:30:46;100410.59;;;12.48;57.84
50368;BME280;36281;34.132;-118.018;2023-03-03T03:33:15;100417.78;;;12.40;57.48
50368;BME280;36281;34.132;-118.018;2023-03-03T03:35:44;100410.66;;;12.34;58.13
50368;BME280;36281;34.132;-118.018;2023-03-03T03:38:15;100414.75;;;12.30;58.02
50368;BME280;36281;34.132;-118.018;2023-03-03T03:40:44;100423.34;;;12.26;58.31
50368;BME280;36281;34.132;-118.018;2023-03-03T03:43:13;100428.25;;;12.22;58.26
50368;BME280;36281;34.132;-118.018;2023-03-03T03:45:43;100433.59;;;12.15;58.74
50368;BME280;36281;34.132;-118.018;2023-03-03T03:48:14;100436.84;;;12.11;58.95
50368;BME280;36281;34.132;-118.018;2023-03-03T03:50:44;100435.63;;;12.07;59.13
50368;BME280;36281;34.132;-118.018;2023-03-03T03:53:13;100444.22;;;12.02;59.53
50368;BME280;36281;34.132;-118.018;2023-03-03T03:55:42;100436.88;;;11.98;60.04
50368;BME280;36281;34.132;-118.018;2023-03-03T03:58:12;100439.75;;;11.89;59.30
50368;BME280;36281;34.132;-118.018;2023-03-03T04:00:42;100442.22;;;11.84;59.00
50368;BME280;36281;34.132;-118.018;2023-03-03T04:03:13;100439.34;;;11.79;59.17
50368;BME280;36281;34.132;-118.018;2023-03-03T04:05:43;100441.78;;;11.74;60.04
50368;BME280;36281;34.132;-118.018;2023-03-03T04:08:12;100445.88;;;11.70;60.81
50368;BME280;36281;34.132;-118.018;2023-03-03T04:10:41;100446.25;;;11.67;61.61
50368;BME280;36281;34.132;-118.018;2023-03-03T04:13:10;100437.28;;;11.61;61.51
50368;BME280;36281;34.132;-118.018;2023-03-03T04:15:40;100443.81;;;11.52;62.25
50368;BME280;36281;34.132;-118.018;2023-03-03T04:18:09;100443.44;;;11.49;62.67
50368;BME280;36281;34.132;-118.018;2023-03-03T04:20:41;100444.22;;;11.43;62.81
50368;BME280;36281;34.132;-118.018;2023-03-03T04:23:10;100453.19;;;11.42;63.18
50368;BME280;36281;34.132;-118.018;2023-03-03T04:25:39;100451.97;;;11.37;63.53
50368;BME280;36281;34.132;-118.018;2023-03-03T04:28:08;100453.38;;;11.33;63.55
50368;BME280;36281;34.132;-118.018;2023-03-03T04:30:38;100456.44;;;11.30;63.41
50368;BME280;36281;34.132;-118.018;2023-03-03T04:33:07;100455.22;;;11.26;63.76
50368;BME280;36281;34.132;-118.018;2023-03-03T04:35:36;100457.88;;;11.20;63.90
50368;BME280;36281;34.132;-118.018;2023-03-03T04:38:07;100463.34;;;11.18;64.24
50368;BME280;36281;34.132;-118.018;2023-03-03T04:40:36;100456.84;;;11.14;64.08
50368;BME280;36281;34.132;-118.018;2023-03-03T04:43:08;100456.19;;;11.05;64.69
50368;BME280;36281;34.132;-118.018;2023-03-03T04:45:38;100462.09;;;11.01;65.08
50368;BME280;36281;34.132;-118.018;2023-03-03T04:48:07;100470.44;;;10.98;65.26
50368;BME280;36281;34.132;-118.018;2023-03-03T04:50:36;100461.44;;;10.92;65.53
50368;BME280;36281;34.132;-118.018;2023-03-03T04:53:07;100455.13;;;10.86;65.63
50368;BME280;36281;34.132;-118.018;2023-03-03T04:55:36;100464.69;;;10.81;66.07
50368;BME280;36281;34.132;-118.018;2023-03-03T04:58:05;100470.19;;;10.79;65.95
50368;BME280;36281;34.132;-118.018;2023-03-03T05:00:37;100469.97;;;10.74;66.33
50368;BME280;36281;34.132;-118.018;2023-03-03T05:03:06;100473.38;;;10.68;66.19
50368;BME280;36281;34.132;-118.018;2023-03-03T05:05:35;100477.25;;;10.66;65.99
50368;BME280;36281;34.132;-118.018;2023-03-03T05:08:07;100484.16;;;10.60;66.29
50368;BME280;36281;34.132;-118.018;2023-03-03T05:10:36;100484.75;;;10.55;66.41
50368;BME280;36281;34.132;-118.018;2023-03-03T05:13:05;100477.81;;;10.54;66.30
50368;BME280;36281;34.132;-118.018;2023-03-03T05:15:34;100479.22;;;10.50;66.40
50368;BME280;36281;34.132;-118.018;2023-03-03T05:18:04;100479.41;;;10.49;66.44
50368;BME280;36281;34.132;-118.018;2023-03-03T05:20:33;100486.72;;;10.47;66.90
50368;BME280;36281;34.132;-118.018;2023-03-03T05:23:02;100483.47;;;10.45;67.33
50368;BME280;36281;34.132;-118.018;2023-03-03T05:25:32;100482.84;;;10.43;67.46
50368;BME280;36281;34.132;-118.018;2023-03-03T05:28:01;100477.94;;;10.40;67.81
50368;BME280;36281;34.132;-118.018;2023-03-03T05:30:32;100471.00;;;10.39;67.63
50368;BME280;36281;34.132;-118.018;2023-03-03T05:33:01;100474.06;;;10.35;67.73
50368;BME280;36281;34.132;-118.018;2023-03-03T05:35:30;100472.81;;;10.31;68.04
50368;BME280;36281;34.132;-118.018;2023-03-03T05:37:59;100468.91;;;10.27;68.35
50368;BME280;36281;34.132;-118.018;2023-03-03T05:40:33;100472.31;;;10.21;68.60
50368;BME280;36281;34.132;-118.018;2023-03-03T05:43:02;100472.69;;;10.18;68.56
50368;BME280;36281;34.132;-118.018;2023-03-03T05:45:32;100483.66;;;10.15;68.94
50368;BME280;36281;34.132;-118.018;2023-03-03T05:48:02;100484.88;;;10.13;69.04
50368;BME280;36281;34.132;-118.018;2023-03-03T05:50:32;100491.38;;;10.10;69.13
50368;BME280;36281;34.132;-118.018;2023-03-03T05:53:01;100488.28;;;10.06;69.31
50368;BME280;36281;34.132;-118.018;2023-03-03T05:55:32;100486.84;;;10.04;69.77
50368;BME280;36281;34.132;-118.018;2023-03-03T05:58:01;100486.00;;;10.03;70.20
50368;BME280;36281;34.132;-118.018;2023-03-03T06:00:30;100482.75;;;10.01;70.22
50368;BME280;36281;34.132;-118.018;2023-03-03T06:02:59;100482.31;;;9.98;70.41
50368;BME280;36281;34.132;-118.018;2023-03-03T06:05:28;100479.06;;;9.96;70.46
50368;BME280;36281;34.132;-118.018;2023-03-03T06:07:57;100475.75;;;9.94;70.59
50368;BME280;36281;34.132;-118.018;2023-03-03T06:10:27;100472.50;;;9.92;70.52
50368;BME280;36281;34.132;-118.018;2023-03-03T06:12:58;100470.22;;;9.89;70.37
50368;BME280;36281;34.132;-118.018;2023-03-03T06:15:27;100476.75;;;9.86;70.40
50368;BME280;36281;34.132;-118.018;2023-03-03T06:17:56;100479.97;;;9.81;70.33
50368;BME280;36281;34.132;-118.018;2023-03-03T06:20:25;100484.59;;;9.79;70.69
50368;BME280;36281;34.132;-118.018;2023-03-03T06:22:54;100477.66;;;9.72;70.73
50368;BME280;36281;34.132;-118.018;2023-03-03T06:25:23;100490.66;;;9.73;70.96
50368;BME280;36281;34.132;-118.018;2023-03-03T06:27:52;100483.13;;;9.70;71.02
50368;BME280;36281;34.132;-118.018;2023-03-03T06:30:23;100481.88;;;9.66;71.00
50368;BME280;36281;34.132;-118.018;2023-03-03T06:32:54;100486.50;;;9.64;71.05
50368;BME280;36281;34.132;-118.018;2023-03-03T06:35:23;100491.38;;;9.61;70.96
50368;BME280;36281;34.132;-118.018;2023-03-03T06:37:52;100493.38;;;9.58;71.01
50368;BME280;36281;34.132;-118.018;2023-03-03T06:40:21;100487.69;;;9.55;71.06
50368;BME280;36281;34.132;-118.018;2023-03-03T06:42:51;100494.16;;;9.52;71.15
50368;BME280;36281;34.132;-118.018;2023-03-03T06:45:20;100498.00;;;9.50;71.42
50368;BME280;36281;34.132;-118.018;2023-03-03T06:47:50;100492.88;;;9.48;71.37
50368;BME280;36281;34.132;-118.018;2023-03-03T06:50:20;100492.28;;;9.46;71.46
50368;BME280;36281;34.132;-118.018;2023-03-03T06:52:50;100497.09;;;9.43;71.27
50368;BME280;36281;34.132;-118.018;2023-03-03T06:55:23;100494.00;;;9.39;71.22
50368;BME280;36281;34.132;-118.018;2023-03-03T06:57:52;100499.50;;;9.38;71.56
50368;BME280;36281;34.132;-118.018;2023-03-03T07:00:24;100490.94;;;9.36;71.57
50368;BME280;36281;34.132;-118.018;2023-03-03T07:03:00;100481.34;;;9.35;71.90
50368;BME280;36281;34.132;-118.018;2023-03-03T07:05:30;100487.03;;;9.31;71.94
50368;BME280;36281;34.132;-118.018;2023-03-03T07:08:00;100473.38;;;9.28;71.97
50368;BME280;36281;34.132;-118.018;2023-03-03T07:10:30;100478.03;;;9.26;72.16
50368;BME280;36281;34.132;-118.018;2023-03-03T07:13:12;100480.84;;;9.24;72.16
50368;BME280;36281;34.132;-118.018;2023-03-03T07:15:44;100474.31;;;9.20;72.25
50368;BME280;36281;34.132;-118.018;2023-03-03T07:18:36;100478.16;;;9.18;72.41
50368;BME280;36281;34.132;-118.018;2023-03-03T07:21:16;100478.50;;;9.15;72.51
50368;BME280;36281;34.132;-118.018;2023-03-03T07:23:47;100469.50;;;9.09;72.68
50368;BME280;36281;34.132;-118.018;2023-03-03T07:26:18;100472.56;;;9.06;72.61
50368;BME280;36281;34.132;-118.018;2023-03-03T07:28:52;100476.56;;;9.02;72.49
50368;BME280;36281;34.132;-118.018;2023-03-03T07:31:30;100471.47;;;9.00;72.83
50368;BME280;36281;34.132;-118.018;2023-03-03T07:34:14;100476.50;;;8.95;73.17
50368;BME280;36281;34.132;-118.018;2023-03-03T07:36:45;100483.97;;;8.92;73.21
50368;BME280;36281;34.132;-118.018;2023-03-03T07:39:25;100473.75;;;8.89;73.35
50368;BME280;36281;34.132;-118.018;2023-03-03T07:42:02;100464.41;;;8.86;73.39
50368;BME280;36281;34.132;-118.018;2023-03-03T07:44:38;100469.22;;;8.83;73.32
50368;BME280;36281;34.132;-118.018;2023-03-03T07:47:18;100464.13;;;8.81;73.53
50368;BME280;36281;34.132;-118.018;2023-03-03T07:49:50;100472.63;;;8.76;73.52
50368;BME280;36281;34.132;-118.018;2023-03-03T07:52:30;100459.75;;;8.73;73.66
50368;BME280;36281;34.132;-118.018;2023-03-03T07:55:24;100453.22;;;8.69;73.88
50368;BME280;36281;34.132;-118.018;2023-03-03T07:58:13;100442.03;;;8.67;73.77
50368;BME280;36281;34.132;-118.018;2023-03-03T08:03:55;100423.63;;;8.59;73.81
50368;BME280;36281;34.132;-118.018;2023-03-03T08:06:38;100424.03;;;8.56;73.90
50368;BME280;36281;34.132;-118.018;2023-03-03T08:09:38;100410.19;;;8.54;73.54
50368;BME280;36281;34.132;-118.018;2023-03-03T08:15:22;100415.38;;;8.47;74.01
50368;BME280;36281;34.132;-118.018;2023-03-03T08:17:53;100421.03;;;8.44;74.00
50368;BME280;36281;34.132;-118.018;2023-03-03T08:20:47;100409.03;;;8.42;74.42
50368;BME280;36281;34.132;-118.018;2023-03-03T08:23:18;100409.38;;;8.39;74.29
50368;BME280;36281;34.132;-118.018;2023-03-03T08:25:49;100403.63;;;8.35;74.60
50368;BME280;36281;34.132;-118.018;2023-03-03T08:28:19;100403.81;;;8.34;74.51
50368;BME280;36281;34.132;-118.018;2023-03-03T08:30:48;100409.47;;;8.31;74.94
50368;BME280;36281;34.132;-118.018;2023-03-03T08:33:22;100406.19;;;8.28;75.00
50368;BME280;36281;34.132;-118.018;2023-03-03T08:35:51;100401.28;;;8.25;74.95
50368;BME280;36281;34.132;-118.018;2023-03-03T08:38:22;100398.00;;;8.23;74.90
50368;BME280;36281;34.132;-118.018;2023-03-03T08:40:51;100399.19;;;8.21;74.99
50368;BME280;36281;34.132;-118.018;2023-03-03T08:43:20;100394.47;;;8.16;75.07
50368;BME280;36281;34.132;-118.018;2023-03-03T08:45:51;100391.38;;;8.13;74.80
50368;BME280;36281;34.132;-118.018;2023-03-03T08:48:21;100389.88;;;8.10;74.85
50368;BME280;36281;34.132;-118.018;2023-03-03T08:50:50;100396.38;;;8.08;75.27
50368;BME280;36281;34.132;-118.018;2023-03-03T08:53:21;100391.63;;;8.03;74.85
50368;BME280;36281;34.132;-118.018;2023-03-03T08:55:51;100389.34;;;8.00;75.35
50368;BME280;36281;34.132;-118.018;2023-03-03T08:58:20;100381.63;;;7.98;75.12
50368;BME280;36281;34.132;-118.018;2023-03-03T09:01:01;100377.72;;;7.94;75.57
50368;BME280;36281;34.132;-118.018;2023-03-03T09:03:30;100374.63;;;7.91;75.64
50368;BME280;36281;34.132;-118.018;2023-03-03T09:05:59;100373.97;;;7.89;75.78
50368;BME280;36281;34.132;-118.018;2023-03-03T09:08:30;100364.72;;;7.78;75.31
50368;BME280;36281;34.132;-118.018;2023-03-03T09:10:59;100370.44;;;7.82;75.86
50368;BME280;36281;34.132;-118.018;2023-03-03T09:13:30;100379.34;;;7.81;76.04
50368;BME280;36281;34.132;-118.018;2023-03-03T09:15:59;100370.16;;;7.76;76.09
50368;BME280;36281;34.132;-118.018;2023-03-03T09:18:34;100374.16;;;7.72;75.66
50368;BME280;36281;34.132;-118.018;2023-03-03T09:21:18;100371.72;;;7.71;75.96
50368;BME280;36281;34.132;-118.018;2023-03-03T09:23:53;100367.59;;;7.68;75.65
50368;BME280;36281;34.132;-118.018;2023-03-03T09:26:26;100365.16;;;7.67;75.78
50368;BME280;36281;34.132;-118.018;2023-03-03T09:29:22;100367.34;;;7.63;76.49
50368;BME280;36281;34.132;-118.018;2023-03-03T09:31:53;100362.78;;;7.57;76.23
50368;BME280;36281;34.132;-118.018;2023-03-03T09:34:25;100361.97;;;7.57;76.15
50368;BME280;36281;34.132;-118.018;2023-03-03T09:36:55;100367.41;;;7.55;75.95
50368;BME280;36281;34.132;-118.018;2023-03-03T09:39:30;100357.22;;;7.52;76.69
50368;BME280;36281;34.132;-118.018;2023-03-03T09:42:24;100350.69;;;7.48;76.36
50368;BME280;36281;34.132;-118.018;2023-03-03T09:51:31;100329.84;;;7.38;76.68
50368;BME280;36281;34.132;-118.018;2023-03-03T09:54:18;100326.94;;;7.33;76.47
50368;BME280;36281;34.132;-118.018;2023-03-03T09:56:58;100328.47;;;7.28;77.39
50368;BME280;36281;34.132;-118.018;2023-03-03T09:59:52;100319.91;;;7.25;77.38
50368;BME280;36281;34.132;-118.018;2023-03-03T10:02:33;100313.19;;;7.23;77.14
50368;BME280;36281;34.132;-118.018;2023-03-03T10:05:20;100307.13;;;7.22;77.59
50368;BME280;36281;34.132;-118.018;2023-03-03T10:08:04;100296.75;;;7.21;77.88
50368;BME280;36281;34.132;-118.018;2023-03-03T10:10:52;100301.19;;;7.20;77.76
50368;BME280;36281;34.132;-118.018;2023-03-03T10:13:34;100295.28;;;7.18;77.61
50368;BME280;36281;34.132;-118.018;2023-03-03T10:19:06;100288.75;;;7.14;77.74
50368;BME280;36281;34.132;-118.018;2023-03-03T10:21:41;100292.56;;;7.12;77.57
50368;BME280;36281;34.132;-118.018;2023-03-03T10:24:16;100286.47;;;7.11;78.26
50368;BME280;36281;34.132;-118.018;2023-03-03T10:27:03;100286.00;;;7.08;77.70
50368;BME280;36281;34.132;-118.018;2023-03-03T10:29:49;100282.72;;;7.06;78.45
50368;BME280;36281;34.132;-118.018;2023-03-03T10:32:35;100293.44;;;7.04;77.98
50368;BME280;36281;34.132;-118.018;2023-03-03T10:35:22;100290.19;;;7.02;77.75
50368;BME280;36281;34.132;-118.018;2023-03-03T10:38:02;100287.25;;;6.97;77.79
50368;BME280;36281;34.132;-118.018;2023-03-03T10:40:40;100277.88;;;6.94;78.13
50368;BME280;36281;34.132;-118.018;2023-03-03T10:43:30;100284.16;;;6.93;78.35
50368;BME280;36281;34.132;-118.018;2023-03-03T10:46:24;100272.00;;;6.92;78.47
50368;BME280;36281;34.132;-118.018;2023-03-03T10:49:08;100261.63;;;6.91;78.54
50368;BME280;36281;34.132;-118.018;2023-03-03T10:51:53;100270.53;;;6.90;78.68
50368;BME280;36281;34.132;-118.018;2023-03-03T10:54:40;100262.63;;;6.90;78.54
50368;BME280;36281;34.132;-118.018;2023-03-03T10:57:19;100265.63;;;6.87;78.53
50368;BME280;36281;34.132;-118.018;2023-03-03T11:00:02;100265.97;;;6.84;78.41
50368;BME280;36281;34.132;-118.018;2023-03-03T11:02:42;100267.97;;;6.82;78.50
50368;BME280;36281;34.132;-118.018;2023-03-03T11:05:26;100265.50;;;6.80;78.45
50368;BME280;36281;34.132;-118.018;2023-03-03T11:08:02;100260.59;;;6.77;78.62
50368;BME280;36281;34.132;-118.018;2023-03-03T11:10:47;100264.06;;;6.78;78.91
50368;BME280;36281;34.132;-118.018;2023-03-03T11:13:22;100269.66;;;6.74;78.55
50368;BME280;36281;34.132;-118.018;2023-03-03T11:16:13;100276.56;;;6.76;78.53
50368;BME280;36281;34.132;-118.018;2023-03-03T11:19:01;100270.66;;;6.73;78.41
50368;BME280;36281;34.132;-118.018;2023-03-03T11:21:39;100261.13;;;6.72;79.07
50368;BME280;36281;34.132;-118.018;2023-03-03T11:24:23;100261.47;;;6.69;78.72
50368;BME280;36281;34.132;-118.018;2023-03-03T11:27:14;100259.03;;;6.68;79.11
50368;BME280;36281;34.132;-118.018;2023-03-03T11:29:55;100254.78;;;6.67;79.14
50368;BME280;36281;34.132;-118.018;2023-03-03T11:32:35;100256.75;;;6.65;79.16
50368;BME280;36281;34.132;-118.018;2023-03-03T11:35:19;100256.94;;;6.63;79.32
50368;BME280;36281;34.132;-118.018;2023-03-03T11:37:58;100252.00;;;6.60;79.76
50368;BME280;36281;34.132;-118.018;2023-03-03T11:40:40;100257.63;;;6.57;80.26
50368;BME280;36281;34.132;-118.018;2023-03-03T11:43:17;100240.56;;;6.53;79.73
50368;BME280;36281;34.132;-118.018;2023-03-03T11:46:05;100233.66;;;6.52;79.06
50368;BME280;36281;34.132;-118.018;2023-03-03T11:48:44;100228.75;;;6.49;79.83
50368;BME280;36281;34.132;-118.018;2023-03-03T11:51:19;100227.28;;;6.46;80.06
50368;BME280;36281;34.132;-118.018;2023-03-03T11:53:58;100231.09;;;6.44;80.21
50368;BME280;36281;34.132;-118.018;2023-03-03T11:56:32;100227.81;;;6.42;80.15
50368;BME280;36281;34.132;-118.018;2023-03-03T12:01:53;100214.19;;;6.38;79.48
50368;BME280;36281;34.132;-118.018;2023-03-03T12:04:28;100223.09;;;6.37;79.56
50368;BME280;36281;34.132;-118.018;2023-03-03T12:07:14;100226.88;;;6.35;79.80
50368;BME280;36281;34.132;-118.018;2023-03-03T12:12:37;100217.41;;;6.26;80.03
50368;BME280;36281;34.132;-118.018;2023-03-03T12:15:18;100212.13;;;6.26;79.44
50368;BME280;36281;34.132;-118.018;2023-03-03T12:18:26;100214.13;;;6.24;79.14
50368;BME280;36281;34.132;-118.018;2023-03-03T12:21:01;100211.69;;;6.22;79.82
50368;BME280;36281;34.132;-118.018;2023-03-03T12:23:51;100203.50;;;6.17;79.52
50368;BME280;36281;34.132;-118.018;2023-03-03T12:26:31;100213.53;;;6.13;79.37
50368;BME280;36281;34.132;-118.018;2023-03-03T12:29:06;100206.66;;;6.12;79.84
50368;BME280;36281;34.132;-118.018;2023-03-03T12:31:47;100219.13;;;6.10;79.63
50368;BME280;36281;34.132;-118.018;2023-03-03T12:34:24;100220.31;;;6.08;80.09
50368;BME280;36281;34.132;-118.018;2023-03-03T12:37:15;100229.34;;;6.05;79.71
50368;BME280;36281;34.132;-118.018;2023-03-03T12:39:59;100222.81;;;6.01;80.31
50368;BME280;36281;34.132;-118.018;2023-03-03T12:42:41;100212.28;;;6.01;80.14
50368;BME280;36281;34.132;-118.018;2023-03-03T12:45:26;100219.34;;;6.01;79.86
50368;BME280;36281;34.132;-118.018;2023-03-03T12:48:00;100217.91;;;5.98;80.05
50368;BME280;36281;34.132;-118.018;2023-03-03T12:50:41;100220.88;;;5.95;79.91
50368;BME280;36281;34.132;-118.018;2023-03-03T12:53:24;100221.88;;;5.94;80.25
50368;BME280;36281;34.132;-118.018;2023-03-03T12:56:03;100220.38;;;5.91;79.88
50368;BME280;36281;34.132;-118.018;2023-03-03T12:58:41;100217.91;;;5.90;80.53
50368;BME280;36281;34.132;-118.018;2023-03-03T13:01:22;100216.28;;;5.89;80.49
50368;BME280;36281;34.132;-118.018;2023-03-03T13:04:03;100212.66;;;5.90;79.72
50368;BME280;36281;34.132;-118.018;2023-03-03T13:06:38;100212.84;;;5.88;80.19
50368;BME280;36281;34.132;-118.018;2023-03-03T13:09:30;100208.56;;;5.87;79.68
50368;BME280;36281;34.132;-118.018;2023-03-03T13:12:17;100217.44;;;5.86;80.01
50368;BME280;36281;34.132;-118.018;2023-03-03T13:14:54;100221.06;;;5.85;79.65
50368;BME280;36281;34.132;-118.018;2023-03-03T13:17:27;100225.81;;;5.82;80.64
50368;BME280;36281;34.132;-118.018;2023-03-03T13:20:00;100231.94;;;5.82;80.19
50368;BME280;36281;34.132;-118.018;2023-03-03T13:22:38;100239.34;;;5.79;80.16
50368;BME280;36281;34.132;-118.018;2023-03-03T13:25:27;100239.66;;;5.76;80.14